Time;durP1;ratioP1;P1;durP2;ratioP2;P2;SDS_P1;SDS_P2;PMS_P1;PMS_P2;Temp;Humidity;BMP_temperature;BMP_pressure;BME280_temperature;BME280_humidity;BME280_pressure;Samples;Min_cycle;Max_cycle;Signal;HPM_P1;HPM_P2
2024/04/16 00:02:02;;;;;;;4.10;1.23;;;6.50;1.00;;;;;;5417023;26;20447;-74
2024/04/16 00:04:28;;;;;;;76.53;22.97;;;6.50;1.00;;;;;;5419854;26;20229;-80
2024/04/16 00:07:09;;;;;;;3.73;1.00;;;7.50;1.00;;;;;;5419456;26;20322;-80
2024/04/16 00:09:34;;;;;;;1.50;0.93;;;6.70;1.00;;;;;;5418971;26;20228;-80
2024/04/16 00:12:03;;;;;;;2.23;1.30;;;6.70;1.00;;;;;;5419781;26;20563;-80
2024/04/16 00:14:45;;;;;;;4.13;2.13;;;6.70;1.00;;;;;;5419382;26;20700;-80
2024/04/16 00:17:15;;;;;;;5.50;1.70;;;6.70;1.00;;;;;;5419607;26;20876;-80
2024/04/16 00:19:41;;;;;;;16.43;4.90;;;8.00;1.00;;;;;;5419416;26;20494;-73
2024/04/16 00:22:09;;;;;;;187.10;58.00;;;6.70;1.00;;;;;;5418812;26;20462;-74
2024/04/16 00:24:39;;;;;;;5.70;1.43;;;6.70;1.00;;;;;;5418894;26;20702;-74
2024/04/16 00:27:09;;;;;;;3.53;3.20;;;8.70;1.00;;;;;;5403791;26;20462;-74
2024/04/16 00:29:40;;;;;;;31.17;11.73;;;6.60;1.00;;;;;;5418689;26;20506;-74
2024/04/16 00:32:06;;;;;;;4.50;1.33;;;6.50;1.00;;;;;;5404956;26;20508;-74
2024/04/16 00:34:31;;;;;;;14.97;5.90;;;6.50;1.00;;;;;;5408852;26;20446;-74
2024/04/16 00:37:09;;;;;;;3.97;1.57;;;6.30;1.00;;;;;;5418691;26;20479;-74
2024/04/16 00:39:35;;;;;;;41.87;12.57;;;6.30;1.00;;;;;;5410134;26;20233;-74
2024/04/16 00:42:02;;;;;;;15.27;5.83;;;;;;;;;;5418502;26;20447;-73
2024/04/16 00:44:34;;;;;;;7.37;1.90;;;6.50;1.00;;;;;;5417456;26;20720;-74
2024/04/16 00:47:00;;;;;;;3.80;1.40;;;6.40;1.00;;;;;;5418584;26;20817;-74
2024/04/16 00:49:25;;;;;;;4.77;1.47;;;6.40;1.00;;;;;;5418832;26;20462;-74
2024/04/16 00:51:54;;;;;;;1.63;1.10;;;6.40;1.00;;;;;;5418413;26;20502;-74
2024/04/16 00:54:21;;;;;;;6.67;1.23;;;6.40;1.00;;;;;;5417011;26;20587;-74
2024/04/16 00:56:47;;;;;;;2.33;1.47;;;6.40;1.00;;;;;;5383289;26;20493;-74
2024/04/16 00:59:15;;;;;;;4.07;1.37;;;6.30;1.00;;;;;;5393217;26;20447;-74
2024/04/16 01:01:41;;;;;;;106.90;30.37;;;;;;;;;;5418368;26;20446;-73
2024/04/16 01:04:15;;;;;;;4.40;1.50;;;6.40;1.00;;;;;;5418369;26;20528;-74
2024/04/16 01:06:45;;;;;;;1.93;1.20;;;6.40;1.00;;;;;;5425601;26;21018;-74
2024/04/16 01:09:13;;;;;;;4.47;1.40;;;6.50;1.00;;;;;;5426535;26;20585;-74
2024/04/16 01:11:39;;;;;;;2.80;1.07;;;6.40;1.00;;;;;;5418475;26;20499;-74
2024/04/16 01:14:05;;;;;;;1.87;1.27;;;;;;;;;;5402969;26;20532;-74
2024/04/16 01:16:31;;;;;;;4.07;1.53;;;6.60;1.00;;;;;;5408517;26;20966;-74
2024/04/16 01:18:57;;;;;;;8.50;0.93;;;;;;;;;;5414903;26;20550;-74
2024/04/16 01:21:22;;;;;;;4.77;0.90;;;6.60;1.00;;;;;;5395032;26;20217;-74
2024/04/16 01:23:48;;;;;;;2.73;0.90;;;6.60;1.00;;;;;;5418094;26;20451;-73
2024/04/16 01:26:15;;;;;;;4.30;0.90;;;;;;;;;;5417946;26;20220;-74
2024/04/16 01:28:45;;;;;;;4.27;1.20;;;6.70;1.00;;;;;;5418026;26;21064;-74
2024/04/16 01:31:12;;;;;;;2.10;0.80;;;;;;;;;;5417840;26;20805;-74
2024/04/16 01:33:37;;;;;;;2.00;1.00;;;6.80;1.00;;;;;;5409933;26;20466;-74
2024/04/16 01:36:05;;;;;;;3.93;1.60;;;6.80;1.00;;;;;;5418022;26;20515;-74
2024/04/16 01:38:30;;;;;;;6.40;1.37;;;6.80;1.00;;;;;;5417850;26;20570;-74
2024/04/16 01:40:56;;;;;;;3.80;1.00;;;6.90;1.00;;;;;;5417678;26;20538;-74
2024/04/16 01:43:27;;;;;;;3.17;1.00;;;6.90;1.00;;;;;;5417920;26;20250;-74
2024/04/16 01:45:54;;;;;;;2.10;0.70;;;7.00;1.00;;;;;;5452361;26;20469;-74
2024/04/16 01:48:21;;;;;;;4.63;0.80;;;7.00;1.00;;;;;;5474891;26;20566;-74
2024/04/16 01:50:47;;;;;;;3.93;0.83;;;7.00;1.00;;;;;;5456891;26;20220;-74
2024/04/16 01:53:13;;;;;;;2.23;0.90;;;;;;;;;;5453642;26;20525;-77
2024/04/16 01:55:39;;;;;;;0.93;0.93;;;6.70;1.00;;;;;;5453439;26;20590;-73
2024/04/16 01:58:09;;;;;;;3.47;1.23;;;6.40;1.00;;;;;;5452274;26;20505;-74
2024/04/16 02:00:39;;;;;;;0.80;0.60;;;6.20;1.00;;;;;;5453014;26;20913;-74
2024/04/16 02:03:09;;;;;;;1.70;0.70;;;6.10;1.00;;;;;;5429040;26;20473;-73
2024/04/16 02:05:37;;;;;;;1.93;0.60;;;6.10;1.00;;;;;;5453755;26;20457;-74
2024/04/16 02:08:03;;;;;;;3.43;1.00;;;6.00;1.00;;;;;;5453286;26;20457;-73
2024/04/16 02:10:29;;;;;;;1.53;0.83;;;6.00;1.00;;;;;;5453303;26;20513;-74
2024/04/16 02:12:54;;;;;;;0.60;0.60;;;5.80;1.00;;;;;;5453221;26;20517;-74
2024/04/16 02:15:20;;;;;;;1.63;0.90;;;5.80;1.00;;;;;;5453393;26;20261;-74
2024/04/16 02:17:46;;;;;;;2.37;0.77;;;5.80;1.00;;;;;;5453426;26;20216;-74
2024/04/16 02:20:12;;;;;;;3.60;1.10;;;5.70;1.00;;;;;;5453149;26;20269;-78
2024/04/16 02:22:37;;;;;;;5.60;1.43;;;5.70;1.00;;;;;;5453387;26;20274;-79
2024/04/16 02:25:21;;;;;;;1.77;0.70;;;5.70;1.00;;;;;;5453353;26;20211;-79
2024/04/16 02:27:47;;;;;;;10.50;0.80;;;5.70;1.00;;;;;;5448418;26;20216;-79
2024/04/16 02:30:21;;;;;;;1.63;0.70;;;5.70;1.00;;;;;;5455216;26;20586;-79
2024/04/16 02:32:47;;;;;;;0.50;0.50;;;5.60;1.00;;;;;;5453336;26;20235;-78
2024/04/16 02:35:15;;;;;;;3.37;0.67;;;5.50;1.00;;;;;;5453235;26;20453;-73
2024/04/16 02:37:41;;;;;;;1.80;0.70;;;5.40;1.00;;;;;;5452836;26;20224;-74
2024/04/16 02:40:08;;;;;;;1.23;0.70;;;5.50;1.00;;;;;;5452904;26;20821;-74
2024/04/16 02:42:51;;;;;;;1.73;0.70;;;5.30;1.00;;;;;;5453135;26;20441;-74
2024/04/16 02:45:27;;;;;;;1.17;0.83;;;5.10;1.00;;;;;;5429499;26;20853;-73
2024/04/16 02:47:53;;;;;;;2.37;1.00;;;5.10;1.00;;;;;;5452933;26;20960;-74
2024/04/16 02:50:28;;;;;;;1.67;0.90;;;5.00;1.00;;;;;;5452561;26;20469;-80
2024/04/16 02:52:54;;;;;;;0.93;0.87;;;5.00;1.00;;;;;;5452912;26;20497;-81
2024/04/16 02:55:21;;;;;;;0.97;0.70;;;4.90;1.00;;;;;;5453280;26;20952;-80
2024/04/16 02:57:51;;;;;;;0.70;0.70;;;4.90;1.00;;;;;;5450598;26;21040;-80
2024/04/16 03:00:17;;;;;;;1.40;0.50;;;4.80;1.00;;;;;;5432955;26;20441;-82
2024/04/16 03:02:43;;;;;;;1.33;0.97;;;4.80;1.00;;;;;;5452783;26;20786;-80
2024/04/16 03:05:09;;;;;;;1.13;0.60;;;;;;;;;;5452870;26;20499;-80
2024/04/16 03:07:45;;;;;;;2.57;0.93;;;4.80;1.00;;;;;;5435773;26;20744;-74
2024/04/16 03:10:15;;;;;;;1.57;0.97;;;4.70;1.00;;;;;;5452910;26;20808;-74
2024/04/16 03:12:42;;;;;;;5.23;1.27;;;4.70;1.00;;;;;;5458590;26;20457;-74
2024/04/16 03:15:08;;;;;;;2.67;1.17;;;4.80;1.00;;;;;;5455959;26;20516;-74
2024/04/16 03:17:39;;;;;;;1.50;0.80;;;4.80;1.00;;;;;;5455918;26;20437;-74
2024/04/16 03:20:05;;;;;;;2.27;0.90;;;4.90;1.00;;;;;;5455760;26;20448;-74
2024/04/16 03:22:32;;;;;;;4.57;0.80;;;4.90;1.00;;;;;;5456416;26;20449;-74
2024/04/16 03:24:58;;;;;;;5.63;0.87;;;4.90;1.00;;;;;;5452622;26;20509;-74
2024/04/16 03:27:24;;;;;;;1.03;0.83;;;4.90;1.00;;;;;;5455470;26;20243;-74
2024/04/16 03:29:50;;;;;;;4.13;0.87;;;4.90;1.00;;;;;;5454892;26;20503;-74
2024/04/16 03:32:16;;;;;;;4.17;0.70;;;4.80;1.00;;;;;;5454858;26;20220;-74
2024/04/16 03:34:42;;;;;;;5.60;0.80;;;4.80;1.00;;;;;;5445962;26;20300;-74
2024/04/16 03:37:08;;;;;;;4.07;0.70;;;4.80;1.00;;;;;;5442787;26;20825;-80
2024/04/16 03:39:39;;;;;;;0.80;0.77;;;4.80;1.00;;;;;;5456066;26;20212;-80
2024/04/16 03:42:05;;;;;;;1.30;0.87;;;4.80;1.00;;;;;;5485135;26;20575;-80
2024/04/16 03:44:31;;;;;;;6.43;0.80;;;4.80;1.00;;;;;;5447108;26;20484;-80
2024/04/16 03:47:03;;;;;;;1.90;0.83;;;4.80;1.00;;;;;;5461233;26;20465;-80
2024/04/16 03:49:29;;;;;;;0.97;0.77;;;4.80;1.00;;;;;;5440024;26;20229;-80
2024/04/16 03:51:55;;;;;;;4.73;0.80;;;;;;;;;;5453647;26;20455;-74
2024/04/16 03:54:21;;;;;;;1.93;0.90;;;;;;;;;;5454642;26;20332;-73
2024/04/16 03:56:47;;;;;;;7.57;1.27;;;5.00;1.00;;;;;;5453133;26;20525;-73
2024/04/16 04:02:03;;;;;;;2.50;0.60;;;5.10;1.00;;;;;;5445417;26;21053;-74
2024/04/16 04:04:33;;;;;;;3.90;1.07;;;5.10;1.00;;;;;;5451271;26;20548;-73
2024/04/16 04:07:03;;;;;;;3.50;0.70;;;5.10;1.00;;;;;;5447272;26;21220;-73
2024/04/16 04:09:29;;;;;;;1.47;0.60;;;5.10;1.00;;;;;;5449978;26;20461;-73
2024/04/16 04:11:57;;;;;;;5.50;1.10;;;5.20;1.00;;;;;;5439069;26;20592;-73
2024/04/16 04:14:27;;;;;;;1.87;0.90;;;5.20;1.00;;;;;;5461609;26;20711;-75
2024/04/16 04:16:53;;;;;;;26.67;5.90;;;5.30;1.00;;;;;;5449063;26;20544;-73
2024/04/16 04:19:21;;;;;;;13.67;2.17;;;5.30;1.00;;;;;;5452319;26;20478;-76
2024/04/16 04:21:51;;;;;;;5.33;1.43;;;5.30;1.00;;;;;;5450564;26;20341;-78
2024/04/16 04:24:17;;;;;;;3.67;1.00;;;5.20;1.00;;;;;;5455592;26;20481;-75
2024/04/16 04:26:51;;;;;;;677.90;327.30;;;5.10;1.00;;;;;;5454422;26;20512;-75
2024/04/16 04:29:21;;;;;;;3.67;1.60;;;5.00;1.00;;;;;;5442713;26;21196;-74
2024/04/16 04:31:47;;;;;;;2.00;0.67;;;;;;;;;;5439181;26;20530;-74
2024/04/16 04:34:13;;;;;;;12.73;3.00;;;4.80;1.00;;;;;;5428050;26;20482;-83
2024/04/16 04:36:39;;;;;;;4.00;1.13;;;4.80;1.00;;;;;;5444348;26;20461;-75
2024/04/16 04:39:05;;;;;;;17.70;10.77;;;4.80;1.00;;;;;;5466839;26;20231;-75
2024/04/16 04:41:31;;;;;;;1.00;0.70;;;;;;;;;;5449420;26;20461;-75
2024/04/16 04:43:57;;;;;;;22.03;6.50;;;4.70;1.00;;;;;;5468167;26;20604;-74
2024/04/16 04:46:27;;;;;;;6.10;1.27;;;4.70;1.00;;;;;;5454689;26;20469;-75
2024/04/16 04:48:53;;;;;;;8.10;2.00;;;4.70;1.00;;;;;;5451083;26;20239;-75
2024/04/16 04:51:21;;;;;;;2.00;0.90;;;4.70;1.00;;;;;;5458649;26;20504;-75
2024/04/16 04:53:47;;;;;;;4.77;1.00;;;;;;;;;;5455185;26;20228;-74
2024/04/16 04:56:15;;;;;;;3.67;1.03;;;4.80;1.00;;;;;;5454764;26;20449;-74
2024/04/16 04:58:41;;;;;;;1.50;0.80;;;4.80;1.00;;;;;;5454102;26;20516;-74
2024/04/16 05:01:09;;;;;;;1.10;0.83;;;4.80;1.00;;;;;;5454179;26;20562;-75
2024/04/16 05:03:35;;;;;;;2.00;1.27;;;4.80;1.00;;;;;;5449764;26;20227;-74
2024/04/16 05:06:09;;;;;;;3.70;1.13;;;4.90;1.00;;;;;;5454275;26;20488;-75
2024/04/16 05:08:35;;;;;;;1.97;1.00;;;4.90;1.00;;;;;;5449663;26;20563;-74
2024/04/16 05:11:03;;;;;;;1.13;0.90;;;4.90;1.00;;;;;;5453776;26;20508;-75
2024/04/16 05:13:31;;;;;;;5.43;0.90;;;;;;;;;;5454100;26;20311;-74
2024/04/16 05:15:56;;;;;;;2.97;0.90;;;5.10;1.00;;;;;;5451897;26;20472;-75
2024/04/16 05:18:27;;;;;;;5.90;1.27;;;5.10;1.00;;;;;;5458107;26;20497;-74
2024/04/16 05:20:53;;;;;;;2.23;0.77;;;5.10;1.00;;;;;;5472245;26;20232;-74
2024/04/16 05:23:21;;;;;;;4.13;0.97;;;5.20;1.00;;;;;;5458985;26;20631;-74
2024/04/16 05:25:54;;;;;;;2.20;0.90;;;5.40;1.00;;;;;;5490746;26;20870;-79
2024/04/16 05:28:23;;;;;;;3.03;0.90;;;5.50;1.00;;;;;;5453880;26;20445;-78
2024/04/16 05:30:49;;;;;;;12.97;1.27;;;5.60;1.00;;;;;;5454216;26;20541;-79
2024/04/16 05:33:15;;;;;;;3.80;1.67;;;5.80;1.00;;;;;;5451040;26;20482;-79
2024/04/16 05:35:45;;;;;;;2.70;1.07;;;5.90;1.00;;;;;;5454005;26;20790;-79
2024/04/16 05:38:11;;;;;;;2.00;1.30;;;6.10;1.00;;;;;;5454397;26;20457;-80
2024/04/16 05:40:39;;;;;;;5.13;1.10;;;6.40;1.00;;;;;;5453997;26;20434;-79
2024/04/16 05:43:21;;;;;;;2.77;1.40;;;6.50;1.00;;;;;;5453796;26;20992;-80
2024/04/16 05:45:51;;;;;;;4.17;1.40;;;6.60;1.00;;;;;;5453857;26;20600;-79
2024/04/16 05:48:17;;;;;;;5.43;1.40;;;6.60;1.00;;;;;;5457546;26;20453;-79
2024/04/16 05:51:21;;;;;;;3.33;1.20;;;6.80;1.00;;;;;;5453760;26;20516;-80
2024/04/16 05:53:51;;;;;;;4.20;1.10;;;6.90;1.00;;;;;;5471717;26;20257;-80
2024/04/16 05:56:21;;;;;;;5.10;0.80;;;6.90;1.00;;;;;;5432237;26;20968;-80
2024/04/16 05:58:57;;;;;;;7.10;1.23;;;6.90;1.00;;;;;;5469456;26;21054;-80
2024/04/16 06:01:33;;;;;;;2.07;1.17;;;6.90;1.00;;;;;;5453799;26;20445;-80
2024/04/16 06:04:01;;;;;;;2.93;0.90;;;7.10;1.00;;;;;;5453521;26;20473;-80
2024/04/16 06:06:27;;;;;;;5.57;0.97;;;7.00;1.00;;;;;;5449831;26;20514;-80
2024/04/16 06:08:57;;;;;;;1.50;1.17;;;7.10;1.00;;;;;;5462870;26;20461;-75
2024/04/16 06:11:23;;;;;;;3.50;0.93;;;7.30;1.00;;;;;;5454277;26;20441;-75
2024/04/16 06:13:49;;;;;;;1.27;0.90;;;7.40;1.00;;;;;;5453041;26;20517;-75
2024/04/16 06:16:15;;;;;;;6.40;0.97;;;7.60;1.00;;;;;;5435270;26;20462;-74
2024/04/16 06:18:42;;;;;;;1.37;0.90;;;7.60;1.00;;;;;;5425880;26;20510;-74
2024/04/16 06:21:09;;;;;;;2.93;1.43;;;7.60;1.00;;;;;;5453386;26;20344;-75
2024/04/16 06:23:34;;;;;;;3.90;1.13;;;7.50;1.00;;;;;;5453269;26;20457;-74
2024/04/16 06:26:06;;;;;;;3.33;0.80;;;7.40;1.00;;;;;;5450564;26;20465;-75
2024/04/16 06:28:33;;;;;;;6.20;1.43;;;7.40;1.00;;;;;;5452912;26;20336;-75
2024/04/16 06:30:59;;;;;;;5.17;1.00;;;7.40;1.00;;;;;;5465384;26;20557;-74
2024/04/16 06:33:28;;;;;;;4.20;1.30;;;7.40;1.00;;;;;;5454590;26;21003;-75
2024/04/16 06:35:54;;;;;;;1.60;0.83;;;7.40;1.00;;;;;;5455709;26;20723;-74
2024/04/16 06:38:21;;;;;;;5.10;1.07;;;8.30;1.00;;;;;;5457958;26;20467;-74
2024/04/16 06:40:47;;;;;;;7.57;1.57;;;7.30;1.00;;;;;;5466000;26;20445;-74
2024/04/16 06:43:12;;;;;;;1.67;0.83;;;7.40;1.00;;;;;;5452745;26;20461;-75
2024/04/16 06:45:39;;;;;;;2.23;0.90;;;7.70;1.00;;;;;;5454541;26;20232;-73
2024/04/16 06:48:05;;;;;;;8.73;1.20;;;7.90;1.00;;;;;;5477887;26;20223;-74
2024/04/16 06:50:48;;;;;;;6.90;1.00;;;7.90;1.00;;;;;;5475262;26;20977;-74
2024/04/16 06:53:15;;;;;;;3.53;1.20;;;8.20;1.00;;;;;;5438883;26;20452;-74
2024/04/16 06:55:45;;;;;;;8.23;1.23;;;8.30;1.00;;;;;;5436253;26;20454;-74
2024/04/16 06:58:11;;;;;;;3.07;1.27;;;8.30;1.00;;;;;;5459879;26;20441;-75
2024/04/16 07:00:39;;;;;;;1.47;0.87;;;8.30;1.00;;;;;;5460371;26;20449;-76
2024/04/16 07:03:05;;;;;;;7.67;1.33;;;8.40;1.00;;;;;;5459875;26;20279;-75
2024/04/16 07:05:39;;;;;;;2.63;1.70;;;8.40;1.00;;;;;;5460429;26;20441;-76
2024/04/16 07:08:09;;;;;;;7.13;1.43;;;8.60;1.00;;;;;;5455825;26;20224;-75
2024/04/16 07:10:39;;;;;;;8.50;1.60;;;8.80;1.00;;;;;;5459704;26;20798;-74
2024/04/16 07:13:05;;;;;;;3.10;1.13;;;8.90;1.00;;;;;;5459635;26;20453;-74
2024/04/16 07:15:32;;;;;;;3.10;1.27;;;9.20;1.00;;;;;;5435721;26;20509;-74
2024/04/16 07:17:58;;;;;;;20.87;1.67;;;9.40;1.00;;;;;;5459676;26;20223;-74
2024/04/16 07:20:33;;;;;;;19.13;1.67;;;9.60;1.00;;;;;;5449844;26;20836;-74
2024/04/16 07:23:00;;;;;;;5.40;1.77;;;9.60;1.00;;;;;;5444783;26;20358;-74
2024/04/16 07:25:27;;;;;;;3.90;1.50;;;9.70;1.00;;;;;;5460028;26;20437;-75
2024/04/16 07:27:53;;;;;;;7.70;2.23;;;9.30;1.00;;;;;;5455374;26;20515;-75
2024/04/16 07:30:19;;;;;;;1.93;1.80;;;9.20;1.00;;;;;;5444902;26;21034;-75
2024/04/16 07:32:45;;;;;;;4.97;1.83;;;9.00;1.00;;;;;;5468692;26;20546;-74
2024/04/16 07:35:11;;;;;;;8.00;1.70;;;9.10;1.00;;;;;;5477937;26;20553;-75
2024/04/16 07:37:37;;;;;;;3.90;1.60;;;;;;;;;;5454586;26;20471;-74
2024/04/16 07:40:04;;;;;;;1.73;1.50;;;9.00;1.00;;;;;;5466296;26;21001;-74
2024/04/16 07:42:29;;;;;;;1.60;1.27;;;9.00;1.00;;;;;;5459185;26;20523;-74
2024/04/16 07:44:55;;;;;;;6.13;1.63;;;9.10;1.00;;;;;;5465035;26;20532;-74
2024/04/16 07:47:21;;;;;;;4.50;1.60;;;9.20;1.00;;;;;;5476440;26;20231;-74
2024/04/16 07:49:57;;;;;;;3.20;1.40;;;9.30;1.00;;;;;;5458980;26;20232;-74
2024/04/16 07:52:23;;;;;;;2.37;1.30;;;9.20;1.00;;;;;;5467486;26;21006;-74
2024/04/16 07:54:48;;;;;;;3.20;0.90;;;9.20;1.00;;;;;;5453348;26;20574;-74
2024/04/16 07:57:14;;;;;;;2.67;1.13;;;9.20;1.00;;;;;;5468726;26;20235;-74
2024/04/16 07:59:45;;;;;;;1.10;0.93;;;9.30;1.00;;;;;;5473843;26;20230;-74
2024/04/16 08:02:15;;;;;;;2.67;1.17;;;9.40;1.00;;;;;;5455223;26;20232;-75
2024/04/16 08:04:41;;;;;;;4.00;1.63;;;9.40;1.00;;;;;;5454258;26;20485;-74
2024/04/16 08:07:07;;;;;;;1.63;1.23;;;9.40;1.00;;;;;;5462531;26;20461;-75
2024/04/16 08:09:33;;;;;;;4.00;1.27;;;9.30;1.00;;;;;;5463184;26;20291;-74
2024/04/16 08:11:59;;;;;;;1.53;1.10;;;9.30;1.00;;;;;;5457924;26;20583;-75
2024/04/16 08:14:24;;;;;;;3.57;0.80;;;9.60;1.00;;;;;;5485752;26;20273;-74
2024/04/16 08:16:50;;;;;;;1.20;0.63;;;9.50;1.00;;;;;;5479397;26;20562;-75
2024/04/16 08:19:18;;;;;;;1.07;1.00;;;;;;;;;;5463833;26;20235;-74
2024/04/16 08:21:44;;;;;;;3.90;0.80;;;9.20;1.00;;;;;;5471171;26;20340;-74
2024/04/16 08:24:10;;;;;;;4.87;1.67;;;9.10;1.00;;;;;;5473140;26;20466;-74
2024/04/16 08:26:39;;;;;;;2.63;0.77;;;9.10;1.00;;;;;;5469220;26;20851;-74
2024/04/16 08:29:05;;;;;;;6.60;1.30;;;9.00;1.00;;;;;;5463117;26;20228;-74
2024/04/16 08:31:34;;;;;;;364.23;145.30;;;9.00;1.00;;;;;;5453851;26;20284;-74
2024/04/16 08:34:01;;;;;;;2.83;1.37;;;9.00;1.00;;;;;;5454636;26;20602;-75
2024/04/16 08:36:29;;;;;;;0.80;0.80;;;9.00;1.00;;;;;;5436738;26;20613;-74
2024/04/16 08:38:55;;;;;;;291.70;96.33;;;9.10;1.00;;;;;;5439516;26;20477;-74
2024/04/16 08:41:21;;;;;;;2.83;1.47;;;9.00;1.00;;;;;;5458902;26;20529;-75
2024/04/16 08:43:49;;;;;;;1.30;0.90;;;9.00;1.00;;;;;;5454973;26;20450;-76
2024/04/16 08:46:16;;;;;;;5.70;1.00;;;8.90;1.00;;;;;;5454420;26;20274;-76
2024/04/16 08:48:43;;;;;;;2.60;1.20;;;9.00;1.00;;;;;;5454555;26;20501;-75
2024/04/16 08:51:17;;;;;;;1.20;1.10;;;9.10;1.00;;;;;;5454299;26;20461;-75
2024/04/16 08:53:45;;;;;;;3.97;1.47;;;9.00;1.00;;;;;;5431101;26;20526;-75
2024/04/16 08:56:11;;;;;;;2.43;1.20;;;8.90;1.00;;;;;;5448578;26;20510;-75
2024/04/16 08:58:37;;;;;;;10.30;1.40;;;8.70;1.00;;;;;;5453618;26;20445;-76
2024/04/16 09:01:11;;;;;;;2.30;1.10;;;8.30;1.00;;;;;;5454430;26;20573;-77
2024/04/16 09:03:40;;;;;;;3.27;1.50;;;;;;;;;;5477960;26;20554;-74
2024/04/16 09:06:06;;;;;;;1.90;0.80;;;8.00;1.00;;;;;;5484310;26;20448;-76
2024/04/16 09:08:34;;;;;;;12.47;2.70;;;7.90;1.00;;;;;;5443448;26;20444;-77
2024/04/16 09:11:03;;;;;;;1.90;1.10;;;7.80;1.00;;;;;;5453200;26;20468;-75
2024/04/16 09:13:29;;;;;;;19.43;4.83;;;7.70;1.00;;;;;;5461517;26;20485;-75
2024/04/16 09:15:58;;;;;;;0.87;0.80;;;7.50;1.00;;;;;;5459836;26;20449;-75
2024/04/16 09:18:24;;;;;;;5.70;1.73;;;7.50;1.00;;;;;;5438011;26;20466;-75
2024/04/16 09:20:55;;;;;;;0.90;0.90;;;7.40;1.00;;;;;;5476921;26;20512;-77
2024/04/16 09:23:21;;;;;;;2.67;1.33;;;7.40;1.00;;;;;;5454391;26;20505;-75
2024/04/16 09:25:52;;;;;;;1.33;0.80;;;7.40;1.00;;;;;;5459732;26;20573;-80
2024/04/16 09:28:21;;;;;;;0.87;0.87;;;7.40;1.00;;;;;;5473427;26;20508;-79
2024/04/16 09:30:56;;;;;;;15.23;5.77;;;7.30;1.00;;;;;;5466622;26;20466;-78
2024/04/16 09:33:30;;;;;;;6.40;0.90;;;7.30;1.00;;;;;;5465725;26;20456;-78
2024/04/16 09:35:57;;;;;;;0.87;0.87;;;7.40;1.00;;;;;;5459720;26;21097;-76
2024/04/16 09:38:27;;;;;;;1.97;1.00;;;7.40;1.00;;;;;;5459517;26;20466;-78
2024/04/16 09:40:54;;;;;;;1.07;1.07;;;7.50;1.00;;;;;;5454658;26;20456;-74
2024/04/16 09:43:21;;;;;;;6.47;1.60;;;7.40;1.00;;;;;;5475014;26;20448;-74
2024/04/16 09:45:49;;;;;;;2.63;1.20;;;7.20;1.00;;;;;;5456010;26;20472;-75
2024/04/16 09:48:16;;;;;;;4.50;1.57;;;7.30;1.00;;;;;;5455294;26;20468;-73
2024/04/16 09:50:43;;;;;;;7.90;1.90;;;7.40;1.00;;;;;;5463750;26;20520;-73
2024/04/16 09:53:11;;;;;;;27.67;5.93;;;7.50;1.00;;;;;;5467944;26;20465;-81
2024/04/16 09:55:58;;;;;;;9.70;2.47;;;7.60;1.00;;;;;;5462829;26;20478;-77
2024/04/16 09:58:43;;;;;;;3.13;1.47;;;7.80;1.00;;;;;;5463601;26;20861;-78
2024/04/16 10:01:09;;;;;;;6.00;1.60;;;7.90;1.00;;;;;;5468182;26;20456;-79
2024/04/16 10:03:57;;;;;;;1.43;1.23;;;8.00;1.00;;;;;;5468891;26;21071;-81
2024/04/16 10:06:24;;;;;;;2.13;1.63;;;8.00;1.00;;;;;;5463085;26;20597;-82
2024/04/16 10:08:54;;;;;;;28.17;10.40;;;8.10;1.00;;;;;;5462707;26;20465;-78
2024/04/16 10:11:23;;;;;;;2.07;1.33;;;8.20;1.00;;;;;;5482572;26;20606;-75
2024/04/16 10:13:51;;;;;;;14.40;3.90;;;8.10;1.00;;;;;;5455104;26;20764;-75
2024/04/16 10:16:17;;;;;;;4.03;1.47;;;8.30;1.00;;;;;;5445858;26;20526;-75
2024/04/16 10:19:05;;;;;;;6.90;1.80;;;8.50;1.00;;;;;;5457716;26;20804;-75
2024/04/16 10:21:38;;;;;;;1.58;1.20;;;8.40;1.00;;;;;;5435210;26;20386;-75
2024/04/16 10:24:08;;;;;;;8.23;1.63;;;8.50;1.00;;;;;;5460287;26;20274;-75
2024/04/16 10:26:44;;;;;;;2.70;1.10;;;8.60;1.00;;;;;;5463637;26;20473;-75
2024/04/16 10:29:40;;;;;;;5.47;1.53;;;8.60;1.00;;;;;;5469098;26;20573;-76
2024/04/16 10:32:05;;;;;;;4.00;1.83;;;8.50;1.00;;;;;;5314455;26;20552;-77
2024/04/16 10:34:40;;;;;;;1.43;1.00;;;8.70;1.00;;;;;;5317603;26;20526;-76
2024/04/16 10:37:10;;;;;;;1.17;0.83;;;8.70;1.00;;;;;;5329555;26;20738;-77
2024/04/16 10:39:40;;;;;;;6.13;0.70;;;8.60;1.00;;;;;;5297665;26;20513;-76
2024/04/16 10:42:29;;;;;;;1.23;0.60;;;8.70;1.00;;;;;;5317856;26;21059;-76
2024/04/16 10:45:00;;;;;;;0.50;0.50;;;8.70;1.00;;;;;;5310168;26;20545;-76
2024/04/16 10:47:25;;;;;;;1.67;0.90;;;8.80;1.00;;;;;;5333926;26;20481;-75
2024/04/16 10:49:58;;;;;;;2.03;0.80;;;8.80;1.00;;;;;;5340492;26;20521;-79
2024/04/16 10:52:24;;;;;;;3.23;0.97;;;8.90;1.00;;;;;;5330582;26;20465;-76
2024/04/16 10:54:52;;;;;;;14.93;2.87;;;9.10;1.00;;;;;;5312039;26;20530;-76
2024/04/16 10:57:19;;;;;;;16.23;2.63;;;9.30;1.00;;;;;;5296705;26;20242;-76
2024/04/16 10:59:46;;;;;;;92.80;32.33;;;9.60;1.00;;;;;;5331176;26;20526;-76
2024/04/16 11:02:33;;;;;;;1.70;0.70;;;9.70;1.00;;;;;;5329532;26;20545;-77
2024/04/16 11:04:59;;;;;;;1.80;0.90;;;9.70;1.00;;;;;;5333036;26;20533;-79
2024/04/16 11:07:25;;;;;;;8.23;2.03;;;9.80;1.00;;;;;;5338089;26;20517;-75
2024/04/16 11:10:05;;;;;;;3.27;1.17;;;9.80;1.00;;;;;;5458278;26;20457;-77
2024/04/16 11:12:30;;;;;;;1.73;1.23;;;9.90;1.00;;;;;;5456679;26;20323;-76
2024/04/16 11:14:58;;;;;;;0.60;0.60;;;9.80;1.00;;;;;;5464177;26;20459;-75
2024/04/16 11:17:26;;;;;;;0.60;0.60;;;10.00;1.00;;;;;;5451821;26;20692;-75
2024/04/16 11:19:52;;;;;;;2.83;0.50;;;10.30;1.00;;;;;;5454839;26;20523;-75
2024/04/16 11:22:18;;;;;;;0.87;0.63;;;10.40;1.00;;;;;;5459722;26;20498;-73
2024/04/16 11:24:44;;;;;;;1.30;0.70;;;;;;;;;;5449122;26;20606;-75
2024/04/16 11:27:13;;;;;;;0.63;0.63;;;10.40;1.00;;;;;;5469157;26;20297;-76
2024/04/16 11:29:52;;;;;;;27.23;1.00;;;10.40;1.00;;;;;;5456630;26;20428;-75
2024/04/16 11:32:22;;;;;;;3.43;0.90;;;10.60;1.00;;;;;;5466920;26;20482;-77
2024/04/16 11:34:58;;;;;;;1.50;1.00;;;10.70;1.00;;;;;;5455155;26;20509;-76
2024/04/16 11:37:24;;;;;;;0.50;0.50;;;;;;;;;;5451475;26;20449;-76
2024/04/16 11:39:52;;;;;;;70.77;16.10;;;10.90;1.00;;;;;;5458509;26;20531;-75
2024/04/16 11:42:18;;;;;;;7.10;1.43;;;11.00;1.00;;;;;;5455937;26;20506;-75
2024/04/16 11:44:46;;;;;;;5.73;0.80;;;11.60;1.00;;;;;;5461717;26;20971;-79
2024/04/16 11:47:22;;;;;;;1.05;0.73;;;11.30;1.00;;;;;;5467966;26;20345;-76
2024/04/16 11:49:52;;;;;;;2.40;0.60;;;11.30;1.00;;;;;;5451856;26;20405;-77
2024/04/16 11:52:22;;;;;;;0.70;0.50;;;11.40;1.00;;;;;;5475592;26;20238;-78
2024/04/16 11:54:47;;;;;;;2.40;0.60;;;11.40;1.00;;;;;;5459779;26;20437;-77
2024/04/16 11:57:17;;;;;;;0.60;0.60;;;11.70;1.00;;;;;;5475908;26;20516;-75
2024/04/16 11:59:43;;;;;;;4.50;0.50;;;11.60;1.00;;;;;;5483844;26;20464;-77
2024/04/16 12:02:12;;;;;;;2.33;0.70;;;11.30;1.00;;;;;;5468271;26;20529;-76
2024/04/16 12:04:40;;;;;;;5.15;0.70;;;11.20;1.00;;;;;;5474579;26;20889;-75
2024/04/16 12:07:06;;;;;;;2.40;0.60;;;11.40;1.00;;;;;;5467386;26;20228;-76
2024/04/16 12:09:34;;;;;;;5.40;1.20;;;11.50;1.00;;;;;;5456092;26;20366;-75
2024/04/16 12:12:04;;;;;;;0.70;0.60;;;11.60;1.00;;;;;;5454410;26;20712;-77
2024/04/16 12:14:40;;;;;;;1.17;0.80;;;11.80;1.00;;;;;;5456026;26;20445;-78
2024/04/16 12:17:10;;;;;;;1.00;0.70;;;12.00;1.00;;;;;;5462575;26;20468;-77
2024/04/16 12:19:35;;;;;;;2.95;1.15;;;11.90;1.00;;;;;;5462037;26;20472;-78
2024/04/16 12:22:04;;;;;;;1.00;0.60;;;11.80;1.00;;;;;;5459965;26;20240;-78
2024/04/16 12:24:30;;;;;;;1.33;0.60;;;;;;;;;;5442210;26;20348;-77
2024/04/16 12:26:56;;;;;;;5.50;0.73;;;;;;;;;;5451981;26;20453;-78
2024/04/16 12:29:22;;;;;;;0.70;0.70;;;;;;;;;;5480883;26;20499;-78
2024/04/16 12:31:48;;;;;;;5.18;1.60;;;12.60;1.00;;;;;;5446094;26;21003;-77
2024/04/16 12:34:22;;;;;;;0.70;0.50;;;13.20;1.00;;;;;;5461376;26;20270;-77
2024/04/16 12:36:47;;;;;;;0.73;0.70;;;13.30;1.00;;;;;;5455723;26;20347;-76
2024/04/16 12:39:15;;;;;;;0.60;0.60;;;13.10;1.00;;;;;;5468973;26;20444;-78
2024/04/16 12:41:47;;;;;;;1.00;0.70;;;13.20;1.00;;;;;;5451842;26;20266;-79
2024/04/16 12:44:33;;;;;;;1.07;0.60;;;13.30;1.00;;;;;;5445455;26;20434;-76
2024/04/16 12:46:59;;;;;;;5.80;0.60;;;13.00;1.00;;;;;;5454472;26;20521;-75
2024/04/16 12:49:28;;;;;;;1.73;0.60;;;13.10;1.00;;;;;;5466882;26;20432;-77
2024/04/16 12:51:54;;;;;;;1.37;0.77;;;13.10;1.00;;;;;;5459818;26;20576;-76
2024/04/16 12:54:35;;;;;;;0.80;0.50;;;13.10;1.00;;;;;;5470447;26;20863;-76
2024/04/16 12:57:04;;;;;;;1.90;0.70;;;13.10;1.00;;;;;;5453075;26;20718;-76
2024/04/16 12:59:34;;;;;;;0.97;0.70;;;13.30;1.00;;;;;;5451002;26;21060;-77
2024/04/16 13:02:04;;;;;;;1.73;1.23;;;13.20;1.00;;;;;;5454669;26;20606;-77
2024/04/16 13:04:30;;;;;;;0.50;0.50;;;13.20;1.00;;;;;;5466995;26;20526;-77
2024/04/16 13:06:58;;;;;;;0.60;0.50;;;13.10;1.00;;;;;;5446981;26;20457;-76
2024/04/16 13:09:24;;;;;;;1.07;0.50;;;13.10;1.00;;;;;;5455175;26;20223;-78
2024/04/16 13:11:50;;;;;;;46.43;1.47;;;12.90;1.00;;;;;;5457640;26;20437;-77
2024/04/16 13:14:15;;;;;;;;;;;12.80;1.00;;;;;;5475923;26;20456;-77
2024/04/16 13:16:46;;;;;;;0.77;0.60;;;12.70;1.00;;;;;;5479551;26;20246;-75
2024/04/16 13:19:28;;;;;;;312.35;134.55;;;12.60;1.00;;;;;;5464259;26;20785;-77
2024/04/16 13:21:58;;;;;;;0.50;0.50;;;12.60;1.00;;;;;;5455396;26;20416;-78